Ariel, Washington
Current Conditions -  °F | °C
As of 3:55 AM on Tuesday 21 Oct 2014 (Local Time) from KKLS Reporting Station
Overcast Overcast  
Wind Chill: 55°   Ceiling: 4800
Heat Index: 55°   Visibility: 10mi
Dew Point: 48°   Wind: 9mph
Humidity: 77%   Direction: 150°SSE
Pressure: 29.91"   Gusts: 20mph
Location:  45.96°N, 122.57°W
Report Text: KKLS 211055Z AUTO 15008G17KT 10SM FEW013 BKN048 OVC055 13/09 A2991 RMK AO1
Loading
Personal Weather Stations






























Interactive Weather Map New forecast layout! Learn more

10-Day Weather Forecast

Advertisements
Track Severe Weather on mobile